sensor_id;sensor_type;location;lat;lon;timestamp;temperature;humidity
54960;DHT22;40860;51.710;8.736;2022-11-03T00:01:24;10.70;83.60
54960;DHT22;40860;51.710;8.736;2022-11-03T00:05:27;10.60;84.00
54960;DHT22;40860;51.710;8.736;2022-11-03T00:09:48;10.60;84.40
54960;DHT22;40860;51.710;8.736;2022-11-03T00:13:51;10.60;84.60
54960;DHT22;40860;51.710;8.736;2022-11-03T00:18:01;10.60;84.70
54960;DHT22;40860;51.710;8.736;2022-11-03T00:22:04;10.60;85.00
54960;DHT22;40860;51.710;8.736;2022-11-03T00:26:08;10.60;85.20
54960;DHT22;40860;51.710;8.736;2022-11-03T00:30:12;10.60;85.20
54960;DHT22;40860;51.710;8.736;2022-11-03T00:34:16;10.60;85.30
54960;DHT22;40860;51.710;8.736;2022-11-03T00:38:19;10.50;85.50
54960;DHT22;40860;51.710;8.736;2022-11-03T00:42:22;10.50;85.80
54960;DHT22;40860;51.710;8.736;2022-11-03T00:46:25;10.50;85.90
54960;DHT22;40860;51.710;8.736;2022-11-03T00:50:32;10.40;86.10
54960;DHT22;40860;51.710;8.736;2022-11-03T00:54:35;10.40;86.50
54960;DHT22;40860;51.710;8.736;2022-11-03T00:58:37;10.40;86.80
54960;DHT22;40860;51.710;8.736;2022-11-03T01:02:40;10.40;87.00
54960;DHT22;40860;51.710;8.736;2022-11-03T01:06:46;10.30;87.10
54960;DHT22;40860;51.710;8.736;2022-11-03T01:10:51;10.30;87.50
54960;DHT22;40860;51.710;8.736;2022-11-03T01:15:08;10.20;87.60
54960;DHT22;40860;51.710;8.736;2022-11-03T01:19:11;10.20;87.90
54960;DHT22;40860;51.710;8.736;2022-11-03T01:23:15;10.20;88.10
54960;DHT22;40860;51.710;8.736;2022-11-03T01:27:19;10.20;88.40
54960;DHT22;40860;51.710;8.736;2022-11-03T01:31:24;10.20;88.60
54960;DHT22;40860;51.710;8.736;2022-11-03T01:35:27;10.20;88.60
54960;DHT22;40860;51.710;8.736;2022-11-03T01:39:31;10.10;88.90
54960;DHT22;40860;51.710;8.736;2022-11-03T01:43:36;10.10;89.20
54960;DHT22;40860;51.710;8.736;2022-11-03T01:47:41;10.00;89.40
54960;DHT22;40860;51.710;8.736;2022-11-03T01:51:52;10.00;89.70
54960;DHT22;40860;51.710;8.736;2022-11-03T01:55:58;10.00;90.00
54960;DHT22;40860;51.710;8.736;2022-11-03T02:00:03;10.00;90.00
54960;DHT22;40860;51.710;8.736;2022-11-03T02:04:17;10.00;90.20
54960;DHT22;40860;51.710;8.736;2022-11-03T02:08:27;10.00;90.30
54960;DHT22;40860;51.710;8.736;2022-11-03T02:12:34;10.10;90.40
54960;DHT22;40860;51.710;8.736;2022-11-03T02:16:37;10.10;90.30
54960;DHT22;40860;51.710;8.736;2022-11-03T02:20:48;10.10;90.40
54960;DHT22;40860;51.710;8.736;2022-11-03T02:25:01;10.10;90.50
54960;DHT22;40860;51.710;8.736;2022-11-03T02:29:05;10.20;90.50
54960;DHT22;40860;51.710;8.736;2022-11-03T02:33:15;10.20;90.50
54960;DHT22;40860;51.710;8.736;2022-11-03T02:37:24;10.30;90.50
54960;DHT22;40860;51.710;8.736;2022-11-03T02:41:29;10.40;90.50
54960;DHT22;40860;51.710;8.736;2022-11-03T02:45:37;10.40;90.50
54960;DHT22;40860;51.710;8.736;2022-11-03T02:49:45;10.50;90.50
54960;DHT22;40860;51.710;8.736;2022-11-03T02:53:57;10.60;90.50
54960;DHT22;40860;51.710;8.736;2022-11-03T02:58:06;10.60;90.50
54960;DHT22;40860;51.710;8.736;2022-11-03T03:02:18;10.60;90.50
54960;DHT22;40860;51.710;8.736;2022-11-03T03:06:26;10.70;90.50
54960;DHT22;40860;51.710;8.736;2022-11-03T03:10:33;10.70;90.40
54960;DHT22;40860;51.710;8.736;2022-11-03T03:14:39;10.80;90.40
54960;DHT22;40860;51.710;8.736;2022-11-03T03:18:50;10.80;90.40
54960;DHT22;40860;51.710;8.736;2022-11-03T03:22:55;10.80;90.40
54960;DHT22;40860;51.710;8.736;2022-11-03T03:27:02;10.80;90.40
54960;DHT22;40860;51.710;8.736;2022-11-03T03:31:09;10.90;90.50
54960;DHT22;40860;51.710;8.736;2022-11-03T03:35:18;10.90;90.60
54960;DHT22;40860;51.710;8.736;2022-11-03T03:39:23;10.90;90.60
54960;DHT22;40860;51.710;8.736;2022-11-03T03:43:29;10.90;90.60
54960;DHT22;40860;51.710;8.736;2022-11-03T03:47:34;10.90;90.60
54960;DHT22;40860;51.710;8.736;2022-11-03T03:51:40;10.90;90.70
54960;DHT22;40860;51.710;8.736;2022-11-03T03:55:46;10.90;90.80
54960;DHT22;40860;51.710;8.736;2022-11-03T03:59:49;11.00;90.80
54960;DHT22;40860;51.710;8.736;2022-11-03T04:03:52;11.00;90.80
54960;DHT22;40860;51.710;8.736;2022-11-03T04:07:57;11.00;91.10
54960;DHT22;40860;51.710;8.736;2022-11-03T04:11:59;11.00;90.90
54960;DHT22;40860;51.710;8.736;2022-11-03T04:16:20;11.00;91.00
54960;DHT22;40860;51.710;8.736;2022-11-03T04:20:40;11.00;91.00
54960;DHT22;40860;51.710;8.736;2022-11-03T04:25:02;11.00;91.10
54960;DHT22;40860;51.710;8.736;2022-11-03T04:29:08;11.00;91.10
54960;DHT22;40860;51.710;8.736;2022-11-03T04:33:13;10.90;91.10
54960;DHT22;40860;51.710;8.736;2022-11-03T04:37:17;11.00;91.20
54960;DHT22;40860;51.710;8.736;2022-11-03T04:41:23;11.00;91.20
54960;DHT22;40860;51.710;8.736;2022-11-03T04:45:28;11.00;91.10
54960;DHT22;40860;51.710;8.736;2022-11-03T04:49:32;11.00;91.20
54960;DHT22;40860;51.710;8.736;2022-11-03T04:53:36;11.00;91.20
54960;DHT22;40860;51.710;8.736;2022-11-03T04:57:55;11.00;91.20
54960;DHT22;40860;51.710;8.736;2022-11-03T05:02:00;10.90;91.20
54960;DHT22;40860;51.710;8.736;2022-11-03T05:06:10;10.90;91.30
54960;DHT22;40860;51.710;8.736;2022-11-03T05:10:15;10.80;91.40
54960;DHT22;40860;51.710;8.736;2022-11-03T05:14:22;10.80;91.50
54960;DHT22;40860;51.710;8.736;2022-11-03T05:18:29;10.80;91.60
54960;DHT22;40860;51.710;8.736;2022-11-03T05:22:34;10.80;91.70
54960;DHT22;40860;51.710;8.736;2022-11-03T05:26:37;10.70;91.70
54960;DHT22;40860;51.710;8.736;2022-11-03T05:30:41;10.70;91.90
54960;DHT22;40860;51.710;8.736;2022-11-03T05:34:46;10.70;91.90
54960;DHT22;40860;51.710;8.736;2022-11-03T05:38:49;10.70;92.00
54960;DHT22;40860;51.710;8.736;2022-11-03T05:42:56;10.70;92.00
54960;DHT22;40860;51.710;8.736;2022-11-03T05:47:02;10.70;91.90
54960;DHT22;40860;51.710;8.736;2022-11-03T05:51:17;10.70;91.90
54960;DHT22;40860;51.710;8.736;2022-11-03T05:55:26;10.70;91.90
54960;DHT22;40860;51.710;8.736;2022-11-03T05:59:29;10.70;91.80
54960;DHT22;40860;51.710;8.736;2022-11-03T06:03:34;10.70;91.80
54960;DHT22;40860;51.710;8.736;2022-11-03T06:07:38;10.60;91.80
54960;DHT22;40860;51.710;8.736;2022-11-03T06:11:41;10.60;91.80
54960;DHT22;40860;51.710;8.736;2022-11-03T06:15:46;10.60;91.80
54960;DHT22;40860;51.710;8.736;2022-11-03T06:19:52;10.60;91.90
54960;DHT22;40860;51.710;8.736;2022-11-03T06:23:55;10.60;91.90
54960;DHT22;40860;51.710;8.736;2022-11-03T06:28:02;10.50;91.90
54960;DHT22;40860;51.710;8.736;2022-11-03T06:32:09;10.50;92.00
54960;DHT22;40860;51.710;8.736;2022-11-03T06:36:18;10.50;92.00
54960;DHT22;40860;51.710;8.736;2022-11-03T06:40:39;10.50;92.00
54960;DHT22;40860;51.710;8.736;2022-11-03T06:44:43;10.50;92.10
54960;DHT22;40860;51.710;8.736;2022-11-03T06:48:47;10.50;92.10
54960;DHT22;40860;51.710;8.736;2022-11-03T06:52:52;10.50;92.20
54960;DHT22;40860;51.710;8.736;2022-11-03T06:56:55;10.50;92.20
54960;DHT22;40860;51.710;8.736;2022-11-03T07:01:00;10.50;92.20
54960;DHT22;40860;51.710;8.736;2022-11-03T07:05:08;10.60;92.30
54960;DHT22;40860;51.710;8.736;2022-11-03T07:09:22;10.60;92.20
54960;DHT22;40860;51.710;8.736;2022-11-03T07:13:27;10.70;92.20
54960;DHT22;40860;51.710;8.736;2022-11-03T07:17:32;10.70;92.10
54960;DHT22;40860;51.710;8.736;2022-11-03T07:21:38;10.80;92.20
54960;DHT22;40860;51.710;8.736;2022-11-03T07:25:44;10.80;92.10
54960;DHT22;40860;51.710;8.736;2022-11-03T07:29:48;10.90;92.10
54960;DHT22;40860;51.710;8.736;2022-11-03T07:33:56;10.90;92.10
54960;DHT22;40860;51.710;8.736;2022-11-03T07:38:02;11.10;92.00
54960;DHT22;40860;51.710;8.736;2022-11-03T07:42:16;11.10;91.80
54960;DHT22;40860;51.710;8.736;2022-11-03T07:46:20;11.20;91.70
54960;DHT22;40860;51.710;8.736;2022-11-03T07:50:23;11.30;91.70
54960;DHT22;40860;51.710;8.736;2022-11-03T07:54:28;11.40;91.70
54960;DHT22;40860;51.710;8.736;2022-11-03T07:58:36;11.40;91.30
54960;DHT22;40860;51.710;8.736;2022-11-03T08:02:45;11.50;91.60
54960;DHT22;40860;51.710;8.736;2022-11-03T08:06:53;11.50;91.50
54960;DHT22;40860;51.710;8.736;2022-11-03T08:10:55;11.60;91.50
54960;DHT22;40860;51.710;8.736;2022-11-03T08:15:00;11.60;91.50
54960;DHT22;40860;51.710;8.736;2022-11-03T08:19:03;11.80;91.50
54960;DHT22;40860;51.710;8.736;2022-11-03T08:23:05;11.90;91.40
54960;DHT22;40860;51.710;8.736;2022-11-03T08:27:28;12.20;90.80
54960;DHT22;40860;51.710;8.736;2022-11-03T08:31:33;12.20;91.00
54960;DHT22;40860;51.710;8.736;2022-11-03T08:35:35;12.30;91.30
54960;DHT22;40860;51.710;8.736;2022-11-03T08:39:38;12.40;90.80
54960;DHT22;40860;51.710;8.736;2022-11-03T08:43:41;12.40;90.70
54960;DHT22;40860;51.710;8.736;2022-11-03T08:47:45;12.40;90.70
54960;DHT22;40860;51.710;8.736;2022-11-03T08:51:48;12.30;90.60
54960;DHT22;40860;51.710;8.736;2022-11-03T08:55:51;12.30;90.60
54960;DHT22;40860;51.710;8.736;2022-11-03T08:59:54;12.30;90.40
54960;DHT22;40860;51.710;8.736;2022-11-03T09:03:58;12.40;90.40
54960;DHT22;40860;51.710;8.736;2022-11-03T09:08:01;12.40;90.30
54960;DHT22;40860;51.710;8.736;2022-11-03T09:12:24;12.40;90.30
54960;DHT22;40860;51.710;8.736;2022-11-03T09:16:27;12.40;90.30
54960;DHT22;40860;51.710;8.736;2022-11-03T09:20:31;12.50;90.40
54960;DHT22;40860;51.710;8.736;2022-11-03T09:24:34;12.50;90.60
54960;DHT22;40860;51.710;8.736;2022-11-03T09:28:37;12.60;90.60
54960;DHT22;40860;51.710;8.736;2022-11-03T09:32:40;12.60;90.70
54960;DHT22;40860;51.710;8.736;2022-11-03T09:36:44;12.60;90.80
54960;DHT22;40860;51.710;8.736;2022-11-03T09:40:53;12.70;90.80
54960;DHT22;40860;51.710;8.736;2022-11-03T09:44:56;12.80;91.00
54960;DHT22;40860;51.710;8.736;2022-11-03T09:49:00;12.80;91.00
54960;DHT22;40860;51.710;8.736;2022-11-03T09:53:05;13.00;90.90
54960;DHT22;40860;51.710;8.736;2022-11-03T09:57:12;13.10;90.80
54960;DHT22;40860;51.710;8.736;2022-11-03T10:01:15;13.20;90.80
54960;DHT22;40860;51.710;8.736;2022-11-03T10:05:21;13.30;90.70
54960;DHT22;40860;51.710;8.736;2022-11-03T10:09:28;13.40;90.30
54960;DHT22;40860;51.710;8.736;2022-11-03T10:13:34;13.40;90.30
54960;DHT22;40860;51.710;8.736;2022-11-03T10:17:38;13.50;90.30
54960;DHT22;40860;51.710;8.736;2022-11-03T10:21:43;13.60;90.30
54960;DHT22;40860;51.710;8.736;2022-11-03T10:25:47;13.60;90.20
54960;DHT22;40860;51.710;8.736;2022-11-03T10:30:05;13.60;90.00
54960;DHT22;40860;51.710;8.736;2022-11-03T10:34:26;13.60;90.10
54960;DHT22;40860;51.710;8.736;2022-11-03T10:38:30;13.70;90.00
54960;DHT22;40860;51.710;8.736;2022-11-03T10:42:35;13.70;89.70
54960;DHT22;40860;51.710;8.736;2022-11-03T10:46:39;13.70;89.40
54960;DHT22;40860;51.710;8.736;2022-11-03T10:50:51;13.90;89.80
54960;DHT22;40860;51.710;8.736;2022-11-03T10:54:57;13.90;88.80
54960;DHT22;40860;51.710;8.736;2022-11-03T10:59:02;13.80;88.70
54960;DHT22;40860;51.710;8.736;2022-11-03T11:03:05;13.80;89.00
54960;DHT22;40860;51.710;8.736;2022-11-03T11:07:18;13.80;88.40
54960;DHT22;40860;51.710;8.736;2022-11-03T11:11:21;13.80;88.50
54960;DHT22;40860;51.710;8.736;2022-11-03T11:15:44;13.80;88.20
54960;DHT22;40860;51.710;8.736;2022-11-03T11:20:16;13.80;88.00
54960;DHT22;40860;51.710;8.736;2022-11-03T11:24:55;13.80;88.20
54960;DHT22;40860;51.710;8.736;2022-11-03T11:33:46;13.80;88.30
54960;DHT22;40860;51.710;8.736;2022-11-03T11:37:49;13.80;88.30
54960;DHT22;40860;51.710;8.736;2022-11-03T11:42:11;13.70;88.40
54960;DHT22;40860;51.710;8.736;2022-11-03T11:46:37;13.70;88.40
54960;DHT22;40860;51.710;8.736;2022-11-03T11:50:42;13.70;88.40
54960;DHT22;40860;51.710;8.736;2022-11-03T11:54:45;13.70;88.40
54960;DHT22;40860;51.710;8.736;2022-11-03T11:58:49;13.70;88.70
54960;DHT22;40860;51.710;8.736;2022-11-03T12:02:55;13.70;88.50
54960;DHT22;40860;51.710;8.736;2022-11-03T12:06:59;13.70;88.40
54960;DHT22;40860;51.710;8.736;2022-11-03T12:11:04;13.70;88.50
54960;DHT22;40860;51.710;8.736;2022-11-03T12:19:45;13.60;89.00
54960;DHT22;40860;51.710;8.736;2022-11-03T12:23:49;13.60;89.10
54960;DHT22;40860;51.710;8.736;2022-11-03T12:27:52;13.60;89.30
54960;DHT22;40860;51.710;8.736;2022-11-03T12:31:55;13.60;89.20
54960;DHT22;40860;51.710;8.736;2022-11-03T12:35:58;13.60;89.50
54960;DHT22;40860;51.710;8.736;2022-11-03T12:40:02;13.60;89.50
54960;DHT22;40860;51.710;8.736;2022-11-03T12:44:05;13.60;89.40
54960;DHT22;40860;51.710;8.736;2022-11-03T12:48:08;13.60;89.40
54960;DHT22;40860;51.710;8.736;2022-11-03T12:52:11;13.50;89.30
54960;DHT22;40860;51.710;8.736;2022-11-03T12:56:16;13.50;89.40
54960;DHT22;40860;51.710;8.736;2022-11-03T13:00:19;13.50;89.30
54960;DHT22;40860;51.710;8.736;2022-11-03T13:04:22;13.50;89.40
54960;DHT22;40860;51.710;8.736;2022-11-03T13:08:25;13.60;89.60
54960;DHT22;40860;51.710;8.736;2022-11-03T13:12:29;13.70;89.70
54960;DHT22;40860;51.710;8.736;2022-11-03T13:16:32;13.70;89.30
54960;DHT22;40860;51.710;8.736;2022-11-03T13:20:36;13.90;88.80
54960;DHT22;40860;51.710;8.736;2022-11-03T13:24:39;13.90;88.70
54960;DHT22;40860;51.710;8.736;2022-11-03T13:28:45;13.90;88.60
54960;DHT22;40860;51.710;8.736;2022-11-03T13:32:49;13.90;88.10
54960;DHT22;40860;51.710;8.736;2022-11-03T13:36:52;13.90;87.70
54960;DHT22;40860;51.710;8.736;2022-11-03T13:40:56;14.00;88.30
54960;DHT22;40860;51.710;8.736;2022-11-03T13:45:09;14.00;87.80
54960;DHT22;40860;51.710;8.736;2022-11-03T13:49:13;14.10;87.70
54960;DHT22;40860;51.710;8.736;2022-11-03T13:53:36;14.10;87.30
54960;DHT22;40860;51.710;8.736;2022-11-03T13:57:59;14.10;87.20
54960;DHT22;40860;51.710;8.736;2022-11-03T14:02:23;14.10;87.00
54960;DHT22;40860;51.710;8.736;2022-11-03T14:06:45;14.00;87.10
54960;DHT22;40860;51.710;8.736;2022-11-03T14:10:48;14.00;87.00
54960;DHT22;40860;51.710;8.736;2022-11-03T14:14:51;14.00;87.20
54960;DHT22;40860;51.710;8.736;2022-11-03T14:18:55;14.00;87.00
54960;DHT22;40860;51.710;8.736;2022-11-03T14:22:58;14.00;86.30
54960;DHT22;40860;51.710;8.736;2022-11-03T14:27:01;13.90;86.90
54960;DHT22;40860;51.710;8.736;2022-11-03T14:31:04;13.90;86.40
54960;DHT22;40860;51.710;8.736;2022-11-03T14:35:09;13.90;87.10
54960;DHT22;40860;51.710;8.736;2022-11-03T14:39:12;13.90;87.00
54960;DHT22;40860;51.710;8.736;2022-11-03T14:43:15;13.90;86.30
54960;DHT22;40860;51.710;8.736;2022-11-03T14:47:18;13.80;86.90
54960;DHT22;40860;51.710;8.736;2022-11-03T14:51:24;13.80;86.90
54960;DHT22;40860;51.710;8.736;2022-11-03T14:55:29;13.80;86.90
54960;DHT22;40860;51.710;8.736;2022-11-03T14:59:32;13.80;86.90
54960;DHT22;40860;51.710;8.736;2022-11-03T15:03:35;13.70;87.10
54960;DHT22;40860;51.710;8.736;2022-11-03T15:07:40;13.70;87.10
54960;DHT22;40860;51.710;8.736;2022-11-03T15:11:43;13.60;87.00
54960;DHT22;40860;51.710;8.736;2022-11-03T15:15:47;13.60;87.10
54960;DHT22;40860;51.710;8.736;2022-11-03T15:19:50;13.50;87.20
54960;DHT22;40860;51.710;8.736;2022-11-03T15:23:54;13.50;87.40
54960;DHT22;40860;51.710;8.736;2022-11-03T15:28:18;13.50;87.30
54960;DHT22;40860;51.710;8.736;2022-11-03T15:32:21;13.50;87.30
54960;DHT22;40860;51.710;8.736;2022-11-03T15:36:25;13.40;87.50
54960;DHT22;40860;51.710;8.736;2022-11-03T15:40:29;13.40;87.60
54960;DHT22;40860;51.710;8.736;2022-11-03T15:44:32;13.40;87.70
54960;DHT22;40860;51.710;8.736;2022-11-03T15:48:36;13.30;87.40
54960;DHT22;40860;51.710;8.736;2022-11-03T15:52:39;13.30;87.60
54960;DHT22;40860;51.710;8.736;2022-11-03T15:56:43;13.30;87.70
54960;DHT22;40860;51.710;8.736;2022-11-03T16:00:46;13.20;87.80
54960;DHT22;40860;51.710;8.736;2022-11-03T16:04:49;13.20;87.90
54960;DHT22;40860;51.710;8.736;2022-11-03T16:08:52;13.20;87.90
54960;DHT22;40860;51.710;8.736;2022-11-03T16:12:56;13.20;88.00
54960;DHT22;40860;51.710;8.736;2022-11-03T16:16:59;13.20;88.20
54960;DHT22;40860;51.710;8.736;2022-11-03T16:21:02;13.20;88.50
54960;DHT22;40860;51.710;8.736;2022-11-03T16:25:06;13.10;88.50
54960;DHT22;40860;51.710;8.736;2022-11-03T16:29:16;13.10;88.70
54960;DHT22;40860;51.710;8.736;2022-11-03T16:33:19;13.10;88.70
54960;DHT22;40860;51.710;8.736;2022-11-03T16:37:22;13.10;88.80
54960;DHT22;40860;51.710;8.736;2022-11-03T16:41:28;13.10;89.00
54960;DHT22;40860;51.710;8.736;2022-11-03T16:45:32;13.10;89.30
54960;DHT22;40860;51.710;8.736;2022-11-03T16:49:38;13.10;89.30
54960;DHT22;40860;51.710;8.736;2022-11-03T16:53:42;13.10;89.30
54960;DHT22;40860;51.710;8.736;2022-11-03T16:57:45;13.10;89.50
54960;DHT22;40860;51.710;8.736;2022-11-03T17:01:49;13.10;89.40
54960;DHT22;40860;51.710;8.736;2022-11-03T17:05:52;13.10;89.50
54960;DHT22;40860;51.710;8.736;2022-11-03T17:09:55;13.10;89.60
54960;DHT22;40860;51.710;8.736;2022-11-03T17:13:58;13.00;89.60
54960;DHT22;40860;51.710;8.736;2022-11-03T17:18:02;13.00;89.60
54960;DHT22;40860;51.710;8.736;2022-11-03T17:22:06;13.00;89.70
54960;DHT22;40860;51.710;8.736;2022-11-03T17:26:09;13.00;89.60
54960;DHT22;40860;51.710;8.736;2022-11-03T17:30:16;13.00;89.60
54960;DHT22;40860;51.710;8.736;2022-11-03T17:34:22;13.00;89.70
54960;DHT22;40860;51.710;8.736;2022-11-03T17:38:26;13.00;89.80
54960;DHT22;40860;51.710;8.736;2022-11-03T17:42:29;13.00;89.80
54960;DHT22;40860;51.710;8.736;2022-11-03T17:46:32;13.00;89.80
54960;DHT22;40860;51.710;8.736;2022-11-03T17:50:37;13.00;89.90
54960;DHT22;40860;51.710;8.736;2022-11-03T17:54:41;13.00;90.00
54960;DHT22;40860;51.710;8.736;2022-11-03T17:58:44;13.00;90.00
54960;DHT22;40860;51.710;8.736;2022-11-03T18:02:49;13.00;90.00
54960;DHT22;40860;51.710;8.736;2022-11-03T18:06:53;13.00;90.00
54960;DHT22;40860;51.710;8.736;2022-11-03T18:10:56;13.00;90.00
54960;DHT22;40860;51.710;8.736;2022-11-03T18:15:00;13.00;90.10
54960;DHT22;40860;51.710;8.736;2022-11-03T18:19:04;13.00;90.40
54960;DHT22;40860;51.710;8.736;2022-11-03T18:23:13;12.90;90.80
54960;DHT22;40860;51.710;8.736;2022-11-03T18:27:17;12.90;91.30
54960;DHT22;40860;51.710;8.736;2022-11-03T18:31:30;12.90;91.50
54960;DHT22;40860;51.710;8.736;2022-11-03T18:35:35;12.90;91.60
54960;DHT22;40860;51.710;8.736;2022-11-03T18:39:39;12.80;91.60
54960;DHT22;40860;51.710;8.736;2022-11-03T18:43:42;12.80;91.60
54960;DHT22;40860;51.710;8.736;2022-11-03T18:47:45;12.90;91.50
54960;DHT22;40860;51.710;8.736;2022-11-03T18:51:50;12.90;91.40
54960;DHT22;40860;51.710;8.736;2022-11-03T18:56:01;12.90;91.40
54960;DHT22;40860;51.710;8.736;2022-11-03T19:00:09;12.90;91.30
54960;DHT22;40860;51.710;8.736;2022-11-03T19:04:16;12.90;91.30
54960;DHT22;40860;51.710;8.736;2022-11-03T19:08:21;12.90;91.30
54960;DHT22;40860;51.710;8.736;2022-11-03T19:12:26;12.90;91.30
54960;DHT22;40860;51.710;8.736;2022-11-03T19:16:29;12.90;91.30
54960;DHT22;40860;51.710;8.736;2022-11-03T19:20:32;12.90;91.30
54960;DHT22;40860;51.710;8.736;2022-11-03T19:24:35;12.90;91.30
54960;DHT22;40860;51.710;8.736;2022-11-03T19:28:39;12.80;91.30
54960;DHT22;40860;51.710;8.736;2022-11-03T19:32:45;12.80;91.30
54960;DHT22;40860;51.710;8.736;2022-11-03T19:36:50;12.80;91.30
54960;DHT22;40860;51.710;8.736;2022-11-03T19:40:53;12.80;91.40
54960;DHT22;40860;51.710;8.736;2022-11-03T19:45:16;12.80;91.40
54960;DHT22;40860;51.710;8.736;2022-11-03T19:49:19;12.80;91.50
54960;DHT22;40860;51.710;8.736;2022-11-03T19:53:25;12.80;91.50
54960;DHT22;40860;51.710;8.736;2022-11-03T19:57:29;12.80;91.40
54960;DHT22;40860;51.710;8.736;2022-11-03T20:01:34;12.80;91.50
54960;DHT22;40860;51.710;8.736;2022-11-03T20:05:40;12.80;91.50
54960;DHT22;40860;51.710;8.736;2022-11-03T20:09:52;12.80;91.40
54960;DHT22;40860;51.710;8.736;2022-11-03T20:13:55;12.80;91.50
54960;DHT22;40860;51.710;8.736;2022-11-03T20:18:00;12.80;91.50
54960;DHT22;40860;51.710;8.736;2022-11-03T20:22:03;12.80;91.40
54960;DHT22;40860;51.710;8.736;2022-11-03T20:26:12;12.80;91.40
54960;DHT22;40860;51.710;8.736;2022-11-03T20:30:17;12.80;91.50
54960;DHT22;40860;51.710;8.736;2022-11-03T20:34:22;12.80;91.50
54960;DHT22;40860;51.710;8.736;2022-11-03T20:38:25;12.70;91.90
54960;DHT22;40860;51.710;8.736;2022-11-03T20:42:28;12.70;92.20
54960;DHT22;40860;51.710;8.736;2022-11-03T20:46:32;12.70;92.60
54960;DHT22;40860;51.710;8.736;2022-11-03T20:50:37;12.60;92.80
54960;DHT22;40860;51.710;8.736;2022-11-03T20:54:40;12.60;93.40
54960;DHT22;40860;51.710;8.736;2022-11-03T20:58:44;12.50;93.50
54960;DHT22;40860;51.710;8.736;2022-11-03T21:02:47;12.50;93.80
54960;DHT22;40860;51.710;8.736;2022-11-03T21:06:52;12.40;94.10
54960;DHT22;40860;51.710;8.736;2022-11-03T21:10:55;12.50;94.10
54960;DHT22;40860;51.710;8.736;2022-11-03T21:15:20;12.50;94.30
54960;DHT22;40860;51.710;8.736;2022-11-03T21:19:58;12.50;94.40
54960;DHT22;40860;51.710;8.736;2022-11-03T21:24:08;12.50;94.40
54960;DHT22;40860;51.710;8.736;2022-11-03T21:28:11;12.40;94.50
54960;DHT22;40860;51.710;8.736;2022-11-03T21:32:15;12.40;94.50
54960;DHT22;40860;51.710;8.736;2022-11-03T21:36:23;12.40;94.40
54960;DHT22;40860;51.710;8.736;2022-11-03T21:40:43;12.40;94.50
54960;DHT22;40860;51.710;8.736;2022-11-03T21:44:46;12.40;94.60
54960;DHT22;40860;51.710;8.736;2022-11-03T21:48:49;12.40;94.60
54960;DHT22;40860;51.710;8.736;2022-11-03T21:53:15;12.40;94.70
54960;DHT22;40860;51.710;8.736;2022-11-03T21:57:19;12.40;94.70
54960;DHT22;40860;51.710;8.736;2022-11-03T22:01:22;12.30;94.80
54960;DHT22;40860;51.710;8.736;2022-11-03T22:05:26;12.30;94.80
54960;DHT22;40860;51.710;8.736;2022-11-03T22:09:29;12.30;94.90
54960;DHT22;40860;51.710;8.736;2022-11-03T22:13:33;12.30;94.90
54960;DHT22;40860;51.710;8.736;2022-11-03T22:17:36;12.30;94.80
54960;DHT22;40860;51.710;8.736;2022-11-03T22:21:39;12.40;94.80
54960;DHT22;40860;51.710;8.736;2022-11-03T22:25:59;12.40;94.80
54960;DHT22;40860;51.710;8.736;2022-11-03T22:30:21;12.40;94.90
54960;DHT22;40860;51.710;8.736;2022-11-03T22:34:41;12.40;94.90
54960;DHT22;40860;51.710;8.736;2022-11-03T22:38:58;12.40;94.90
54960;DHT22;40860;51.710;8.736;2022-11-03T22:43:18;12.40;94.90
54960;DHT22;40860;51.710;8.736;2022-11-03T22:47:40;12.50;95.00
54960;DHT22;40860;51.710;8.736;2022-11-03T22:51:43;12.50;94.90
54960;DHT22;40860;51.710;8.736;2022-11-03T22:55:46;12.50;94.90
54960;DHT22;40860;51.710;8.736;2022-11-03T22:59:49;12.50;95.00
54960;DHT22;40860;51.710;8.736;2022-11-03T23:03:54;12.50;95.10
54960;DHT22;40860;51.710;8.736;2022-11-03T23:07:57;12.50;95.40
54960;DHT22;40860;51.710;8.736;2022-11-03T23:12:00;12.50;95.60
54960;DHT22;40860;51.710;8.736;2022-11-03T23:16:15;12.50;95.90
54960;DHT22;40860;51.710;8.736;2022-11-03T23:20:20;12.40;96.20
54960;DHT22;40860;51.710;8.736;2022-11-03T23:24:41;12.40;96.80
54960;DHT22;40860;51.710;8.736;2022-11-03T23:29:03;12.20;97.80
54960;DHT22;40860;51.710;8.736;2022-11-03T23:33:06;12.10;98.70
54960;DHT22;40860;51.710;8.736;2022-11-03T23:37:11;12.00;98.80
54960;DHT22;40860;51.710;8.736;2022-11-03T23:41:17;11.90;99.10
54960;DHT22;40860;51.710;8.736;2022-11-03T23:45:20;11.90;99.10
54960;DHT22;40860;51.710;8.736;2022-11-03T23:49:42;11.90;99.30
54960;DHT22;40860;51.710;8.736;2022-11-03T23:53:47;11.80;99.40
54960;DHT22;40860;51.710;8.736;2022-11-03T23:57:50;11.80;99.40
